OYCVW LFLB-LFMT
Flight info
| Callsign | OYCVW |
|---|---|
| Flight time | N/A |
| Altitude | 25000 |
| Route | ROMAM A6 MTL DCT MOLEN DCT NG |
| Aircraft | B350/L-SBGRW/S |
Departure
| Time | 2026-04-23 21:32 |
|---|---|
| Airport | Chambéry Aix les Bains airport (LFLB) |
Arrival
| Time | N/A |
|---|---|
| Airport | Montpellier-Méditerranée Airport (LFMT) |
| Time | Latitude | Longitude | Altitude | Speed | Heading |
|---|---|---|---|---|---|
| 2026-04-23 20:50 | 45.64158 | 5.88318 | 773 ft | 0 kts | 86° |
| 2026-04-23 21:27 | 45.64158 | 5.88319 | 771 ft | 0 kts | 86° |
| 2026-04-23 21:27 | 45.64153 | 5.88336 | 771 ft | 4 kts | 187° |
| 2026-04-23 21:27 | 45.64150 | 5.88280 | 771 ft | 6 kts | 275° |
| 2026-04-23 21:27 | 45.64121 | 5.88214 | 772 ft | 9 kts | 184° |
| 2026-04-23 21:28 | 45.64053 | 5.88195 | 772 ft | 8 kts | 247° |
| 2026-04-23 21:28 | 45.64041 | 5.88182 | 772 ft | 6 kts | 64° |
| 2026-04-23 21:28 | 45.64021 | 5.88232 | 772 ft | 8 kts | 179° |
| 2026-04-23 21:28 | 45.63942 | 5.88238 | 773 ft | 13 kts | 177° |
| 2026-04-23 21:29 | 45.63842 | 5.88245 | 773 ft | 14 kts | 178° |
| 2026-04-23 21:29 | 45.63763 | 5.88228 | 774 ft | 10 kts | 177° |
| 2026-04-23 21:29 | 45.63667 | 5.88237 | 774 ft | 16 kts | 176° |
| 2026-04-23 21:29 | 45.63558 | 5.88246 | 775 ft | 14 kts | 178° |
| 2026-04-23 21:30 | 45.63449 | 5.88254 | 775 ft | 17 kts | 178° |
| 2026-04-23 21:30 | 45.63328 | 5.88265 | 776 ft | 19 kts | 176° |
| 2026-04-23 21:30 | 45.63200 | 5.88270 | 777 ft | 14 kts | 192° |
| 2026-04-23 21:30 | 45.63167 | 5.88241 | 777 ft | 0 kts | 236° |
| 2026-04-23 21:31 | 45.63150 | 5.88175 | 777 ft | 15 kts | 261° |
| 2026-04-23 21:31 | 45.63157 | 5.88085 | 777 ft | 12 kts | 317° |
| 2026-04-23 21:32 | 45.63183 | 5.88073 | 777 ft | 6 kts | 358° |
| 2026-04-23 21:32 | 45.63619 | 5.88040 | 775 ft | 110 kts | 357° |
| 2026-04-23 21:32 | 45.64503 | 5.87946 | 1220 ft | 135 kts | 354° |
| 2026-04-23 21:32 | 45.65391 | 5.87778 | 2015 ft | 138 kts | 359° |
| 2026-04-23 21:33 | 45.66397 | 5.87742 | 2591 ft | 154 kts | 0° |
| 2026-04-23 21:33 | 45.67498 | 5.87685 | 3199 ft | 165 kts | 360° |
| 2026-04-23 21:33 | 45.68660 | 5.87606 | 3838 ft | 169 kts | 359° |
| 2026-04-23 21:33 | 45.69826 | 5.87517 | 4446 ft | 173 kts | 358° |
| 2026-04-23 21:34 | 45.71044 | 5.87420 | 5072 ft | 176 kts | 358° |
| 2026-04-23 21:34 | 45.72261 | 5.87321 | 5672 ft | 178 kts | 358° |
| 2026-04-23 21:34 | 45.73499 | 5.87220 | 6256 ft | 180 kts | 358° |
| 2026-04-23 21:34 | 45.74685 | 5.86743 | 6796 ft | 183 kts | 326° |
| 2026-04-23 21:35 | 45.75414 | 5.85280 | 7327 ft | 187 kts | 285° |
| 2026-04-23 21:35 | 45.75293 | 5.83463 | 7835 ft | 190 kts | 244° |
| 2026-04-23 21:35 | 45.74536 | 5.81900 | 8349 ft | 192 kts | 231° |
| 2026-04-23 21:35 | 45.73679 | 5.80458 | 8861 ft | 192 kts | 229° |
| 2026-04-23 21:36 | 45.71935 | 5.77544 | 9845 ft | 194 kts | 230° |
| 2026-04-23 21:36 | 45.71072 | 5.76066 | 10302 ft | 196 kts | 230° |
| 2026-04-23 21:36 | 45.70200 | 5.74563 | 10737 ft | 198 kts | 230° |
| 2026-04-23 21:37 | 45.69325 | 5.73050 | 11160 ft | 200 kts | 230° |
| 2026-04-23 21:37 | 45.68436 | 5.71511 | 11669 ft | 204 kts | 230° |
| 2026-04-23 21:37 | 45.67529 | 5.69939 | 12204 ft | 205 kts | 230° |
| 2026-04-23 21:37 | 45.66822 | 5.68191 | 12737 ft | 206 kts | 252° |
| 2026-04-23 21:38 | 45.66650 | 5.66169 | 13226 ft | 206 kts | 277° |
| 2026-04-23 21:38 | 45.66870 | 5.64152 | 13695 ft | 208 kts | 283° |
| 2026-04-23 21:38 | 45.67149 | 5.62119 | 14152 ft | 209 kts | 283° |
| 2026-04-23 21:38 | 45.67424 | 5.60101 | 14619 ft | 209 kts | 283° |
| 2026-04-23 21:39 | 45.67704 | 5.58075 | 15101 ft | 209 kts | 283° |
| 2026-04-23 21:39 | 45.67997 | 5.56038 | 15565 ft | 210 kts | 283° |
| 2026-04-23 21:39 | 45.68289 | 5.54000 | 15991 ft | 210 kts | 283° |
| 2026-04-23 21:39 | 45.68578 | 5.51954 | 16392 ft | 212 kts | 283° |
| 2026-04-23 21:40 | 45.68867 | 5.49915 | 16814 ft | 212 kts | 283° |
| 2026-04-23 21:40 | 45.69159 | 5.47850 | 17237 ft | 211 kts | 283° |
| 2026-04-23 21:40 | 45.69449 | 5.45795 | 17653 ft | 211 kts | 283° |
| 2026-04-23 21:40 | 45.69735 | 5.43762 | 18061 ft | 211 kts | 283° |
| 2026-04-23 21:41 | 45.70025 | 5.41704 | 18419 ft | 212 kts | 282° |
| 2026-04-23 21:41 | 45.70316 | 5.39625 | 18797 ft | 214 kts | 282° |
| 2026-04-23 21:41 | 45.70607 | 5.37542 | 19187 ft | 216 kts | 282° |
| 2026-04-23 21:41 | 45.70897 | 5.35471 | 19606 ft | 216 kts | 282° |
| 2026-04-23 21:42 | 45.71192 | 5.33359 | 19999 ft | 216 kts | 281° |
| 2026-04-23 21:42 | 45.71488 | 5.31234 | 20373 ft | 217 kts | 281° |
| 2026-04-23 21:42 | 45.71749 | 5.29131 | 20754 ft | 217 kts | 272° |
| 2026-04-23 21:42 | 45.71614 | 5.26993 | 21093 ft | 215 kts | 250° |
| 2026-04-23 21:43 | 45.70982 | 5.25104 | 21420 ft | 210 kts | 228° |
| 2026-04-23 21:43 | 45.69962 | 5.23673 | 21764 ft | 203 kts | 207° |
| 2026-04-23 21:43 | 45.68724 | 5.22844 | 22112 ft | 195 kts | 188° |
| 2026-04-23 21:43 | 45.67404 | 5.22567 | 22462 ft | 190 kts | 179° |
| 2026-04-23 21:44 | 45.66083 | 5.22424 | 22806 ft | 190 kts | 179° |
| 2026-04-23 21:44 | 45.65210 | 5.22330 | 23035 ft | 189 kts | 178° |
| 2026-04-23 21:44 | 45.63889 | 5.22187 | 23351 ft | 190 kts | 178° |
| 2026-04-23 21:44 | 45.62573 | 5.22044 | 23654 ft | 190 kts | 178° |
| 2026-04-23 21:45 | 45.60818 | 5.21852 | 24052 ft | 190 kts | 178° |
| 2026-04-23 21:45 | 45.59503 | 5.21708 | 24332 ft | 191 kts | 178° |
| 2026-04-23 21:45 | 45.58180 | 5.21563 | 24609 ft | 192 kts | 178° |
| 2026-04-23 21:45 | 45.56835 | 5.21415 | 24898 ft | 191 kts | 178° |
| 2026-04-23 21:46 | 45.55957 | 5.21319 | 25078 ft | 191 kts | 178° |
| 2026-04-23 21:46 | 45.54145 | 5.21124 | 25206 ft | 204 kts | 179° |
| 2026-04-23 21:46 | 45.52687 | 5.20965 | 25218 ft | 217 kts | 180° |
| 2026-04-23 21:46 | 45.51122 | 5.20792 | 25216 ft | 230 kts | 180° |
| 2026-04-23 21:47 | 45.49496 | 5.20612 | 25213 ft | 241 kts | 180° |
| 2026-04-23 21:47 | 45.47800 | 5.20427 | 25212 ft | 251 kts | 180° |
| 2026-04-23 21:47 | 45.46025 | 5.20233 | 25209 ft | 260 kts | 180° |
| 2026-04-23 21:47 | 45.44200 | 5.20032 | 25208 ft | 268 kts | 180° |
| 2026-04-23 21:48 | 45.42316 | 5.19826 | 25209 ft | 275 kts | 180° |
| 2026-04-23 21:48 | 45.40379 | 5.19614 | 25211 ft | 282 kts | 180° |
| 2026-04-23 21:48 | 45.38391 | 5.19397 | 25209 ft | 288 kts | 180° |
| 2026-04-23 21:48 | 45.36400 | 5.19179 | 25205 ft | 294 kts | 181° |
| 2026-04-23 21:49 | 45.34331 | 5.18953 | 25202 ft | 299 kts | 181° |
| 2026-04-23 21:49 | 45.32244 | 5.18725 | 25203 ft | 303 kts | 181° |
| 2026-04-23 21:49 | 45.30132 | 5.18495 | 25208 ft | 307 kts | 181° |
| 2026-04-23 21:49 | 45.27966 | 5.18259 | 25209 ft | 310 kts | 181° |
| 2026-04-23 21:50 | 45.25825 | 5.18025 | 25210 ft | 312 kts | 181° |
| 2026-04-23 21:50 | 45.23651 | 5.17789 | 25208 ft | 314 kts | 181° |
| 2026-04-23 21:50 | 45.21473 | 5.17552 | 25201 ft | 316 kts | 181° |
| 2026-04-23 21:50 | 45.19275 | 5.17314 | 25197 ft | 318 kts | 181° |
| 2026-04-23 21:51 | 45.17062 | 5.17074 | 25194 ft | 319 kts | 181° |
| 2026-04-23 21:51 | 45.15582 | 5.16913 | 25192 ft | 320 kts | 181° |
| 2026-04-23 21:51 | 45.12638 | 5.16595 | 25187 ft | 321 kts | 182° |
| 2026-04-23 21:51 | 45.10423 | 5.16055 | 25196 ft | 324 kts | 191° |
| 2026-04-23 21:52 | 45.08313 | 5.14971 | 25186 ft | 328 kts | 202° |
| 2026-04-23 21:52 | 45.06264 | 5.13551 | 25188 ft | 329 kts | 203° |
| 2026-04-23 21:52 | 45.04902 | 5.12593 | 25189 ft | 329 kts | 204° |
| 2026-04-23 21:52 | 45.02842 | 5.11144 | 25184 ft | 330 kts | 204° |
| 2026-04-23 21:53 | 45.00110 | 5.09227 | 25183 ft | 330 kts | 204° |
| 2026-04-23 21:53 | 44.98734 | 5.08263 | 25177 ft | 330 kts | 204° |
| 2026-04-23 21:53 | 44.96676 | 5.06822 | 25182 ft | 330 kts | 204° |
| 2026-04-23 21:53 | 44.94620 | 5.05385 | 25180 ft | 330 kts | 203° |
| 2026-04-23 21:54 | 44.91897 | 5.03483 | 25174 ft | 330 kts | 203° |
| 2026-04-23 21:54 | 44.89839 | 5.02046 | 25170 ft | 330 kts | 203° |
| 2026-04-23 21:54 | 44.88442 | 5.01073 | 25173 ft | 330 kts | 203° |
| 2026-04-23 21:54 | 44.86368 | 4.99628 | 25173 ft | 331 kts | 202° |
| 2026-04-23 21:55 | 44.83602 | 4.97704 | 25175 ft | 331 kts | 203° |
| 2026-04-23 21:55 | 44.82215 | 4.96740 | 25174 ft | 331 kts | 203° |
| 2026-04-23 21:55 | 44.79474 | 4.94834 | 25173 ft | 332 kts | 203° |
| 2026-04-23 21:55 | 44.78086 | 4.93872 | 25172 ft | 332 kts | 202° |
| 2026-04-23 21:56 | 44.76003 | 4.92424 | 25178 ft | 332 kts | 202° |
| 2026-04-23 21:56 | 44.73236 | 4.90504 | 25182 ft | 333 kts | 202° |
| 2026-04-23 21:56 | 44.71179 | 4.89069 | 25187 ft | 334 kts | 203° |
| 2026-04-23 21:56 | 44.69793 | 4.88084 | 25186 ft | 334 kts | 203° |
| 2026-04-23 21:57 | 44.67707 | 4.86601 | 25161 ft | 337 kts | 205° |
| 2026-04-23 21:57 | 44.65619 | 4.85118 | 25182 ft | 340 kts | 207° |
| 2026-04-23 21:57 | 44.62777 | 4.83106 | 24995 ft | 350 kts | 204° |
| 2026-04-23 21:57 | 44.60585 | 4.81557 | 24618 ft | 358 kts | 208° |
| 2026-04-23 21:58 | 44.59096 | 4.80506 | 24373 ft | 361 kts | 207° |
| 2026-04-23 21:58 | 44.56832 | 4.78924 | 24001 ft | 364 kts | 207° |
| 2026-04-23 21:58 | 44.53794 | 4.77020 | 23501 ft | 363 kts | 205° |
| 2026-04-23 21:58 | 44.51427 | 4.75712 | 23123 ft | 361 kts | 204° |
| 2026-04-23 21:59 | 44.49887 | 4.74892 | 22874 ft | 360 kts | 204° |
| 2026-04-23 21:59 | 44.47559 | 4.73655 | 22499 ft | 358 kts | 204° |
| 2026-04-23 21:59 | 44.45247 | 4.72422 | 22123 ft | 356 kts | 204° |
| 2026-04-23 22:00 | 44.40660 | 4.69972 | 21372 ft | 351 kts | 204° |
| 2026-04-23 22:00 | 44.37641 | 4.68357 | 20874 ft | 349 kts | 204° |
| 2026-04-23 22:00 | 44.36114 | 4.67541 | 20623 ft | 347 kts | 204° |
| 2026-04-23 22:00 | 44.33870 | 4.66340 | 20246 ft | 345 kts | 204° |
| 2026-04-23 22:01 | 44.31636 | 4.65146 | 19728 ft | 346 kts | 204° |
| 2026-04-23 22:01 | 44.28654 | 4.63552 | 19085 ft | 343 kts | 203° |
| 2026-04-23 22:01 | 44.27190 | 4.62770 | 18771 ft | 341 kts | 203° |
| 2026-04-23 22:01 | 44.24976 | 4.61590 | 18299 ft | 339 kts | 203° |
| 2026-04-23 22:02 | 44.22784 | 4.60421 | 17834 ft | 337 kts | 203° |
| 2026-04-23 22:02 | 44.20603 | 4.59262 | 17369 ft | 335 kts | 202° |
| 2026-04-23 22:02 | 44.18445 | 4.58118 | 16905 ft | 333 kts | 202° |
| 2026-04-23 22:02 | 44.15575 | 4.56598 | 16284 ft | 330 kts | 202° |
| 2026-04-23 22:03 | 44.14142 | 4.55838 | 15968 ft | 329 kts | 201° |
| 2026-04-23 22:03 | 44.11342 | 4.54354 | 15349 ft | 325 kts | 201° |
| 2026-04-23 22:03 | 44.09934 | 4.53607 | 15037 ft | 323 kts | 201° |
| 2026-04-23 22:03 | 44.07828 | 4.52491 | 14559 ft | 321 kts | 201° |
| 2026-04-23 22:04 | 44.05754 | 4.51392 | 14096 ft | 319 kts | 201° |
| 2026-04-23 22:04 | 44.03009 | 4.49923 | 13479 ft | 316 kts | 201° |
| 2026-04-23 22:04 | 44.00970 | 4.48822 | 13014 ft | 314 kts | 201° |
| 2026-04-23 22:04 | 43.99620 | 4.48094 | 12699 ft | 313 kts | 201° |
| 2026-04-23 22:05 | 43.96938 | 4.46648 | 12087 ft | 310 kts | 201° |
| 2026-04-23 22:05 | 43.95604 | 4.45930 | 11767 ft | 303 kts | 201° |
| 2026-04-23 22:05 | 43.93063 | 4.44562 | 11117 ft | 287 kts | 201° |
| 2026-04-23 22:05 | 43.91260 | 4.43594 | 10717 ft | 275 kts | 200° |
| 2026-04-23 22:06 | 43.89500 | 4.42648 | 10317 ft | 265 kts | 200° |
| 2026-04-23 22:06 | 43.87817 | 4.41741 | 9930 ft | 258 kts | 200° |
| 2026-04-23 22:06 | 43.86180 | 4.40757 | 9539 ft | 253 kts | 209° |
| 2026-04-23 22:06 | 43.84858 | 4.39226 | 9179 ft | 250 kts | 225° |
| 2026-04-23 22:07 | 43.84085 | 4.38041 | 8934 ft | 248 kts | 227° |
| 2026-04-23 22:07 | 43.82969 | 4.36195 | 8553 ft | 244 kts | 229° |
| 2026-04-23 22:07 | 43.81890 | 4.34394 | 8172 ft | 242 kts | 228° |
| 2026-04-23 22:07 | 43.80817 | 4.32620 | 7799 ft | 239 kts | 227° |